Time;durP1;ratioP1;P1;durP2;ratioP2;P2;SDS_P1;SDS_P2;PMS_P1;PMS_P2;Temp;Humidity;BMP_temperature;BMP_pressure;BME280_temperature;BME280_humidity;BME280_pressure;Samples;Min_cycle;Max_cycle;Signal;HPM_P1;HPM_P2
2021/01/20 00:00:25;;;;;;;8.80;7.90;;;;;;;9.47;74.97;99976.59;6160776;28;20279;-68
2021/01/20 00:03:45;;;;;;;9.73;8.83;;;;;;;9.20;75.53;99976.16;6159212;28;20235;-68
2021/01/20 00:07:06;;;;;;;8.63;7.83;;;;;;;8.97;76.29;99976.53;6158159;28;20231;-68
2021/01/20 00:10:26;;;;;;;9.73;8.90;;;;;;;9.15;75.69;99982.31;6156743;28;20234;-68
2021/01/20 00:13:48;;;;;;;10.33;8.70;;;;;;;9.29;74.71;99977.75;6155968;28;20536;-68
2021/01/20 00:17:09;;;;;;;8.47;7.77;;;;;;;9.30;74.67;99984.66;6156265;28;20231;-68
2021/01/20 00:20:30;;;;;;;10.50;9.17;;;;;;;8.97;75.93;99981.72;6160180;28;20313;-69
2021/01/20 00:23:50;;;;;;;9.87;9.03;;;;;;;8.95;76.04;99985.25;6158559;28;20230;-68
2021/01/20 00:27:11;;;;;;;9.40;8.60;;;;;;;9.11;75.08;99988.44;6144871;28;20238;-68
2021/01/20 00:30:32;;;;;;;9.27;8.47;;;;;;;8.97;75.16;99980.88;6157461;28;20223;-68
2021/01/20 00:33:52;;;;;;;9.30;8.43;;;;;;;8.98;74.80;99972.22;6161270;28;20250;-69
2021/01/20 00:37:13;;;;;;;10.43;9.43;;;;;;;9.08;74.31;99976.38;6156311;28;20234;-69
2021/01/20 00:40:34;;;;;;;9.00;8.20;;;;;;;8.89;73.81;99978.41;6156284;28;20238;-68
2021/01/20 00:43:54;;;;;;;9.33;8.43;;;;;;;8.77;74.44;99978.59;6144677;28;20234;-68
2021/01/20 00:47:16;;;;;;;11.10;10.10;;;;;;;8.81;74.45;99970.72;6156834;28;20507;-69
2021/01/20 00:50:37;;;;;;;10.60;9.70;;;;;;;8.74;74.42;99979.50;6159321;28;20853;-67
2021/01/20 00:53:58;;;;;;;11.23;10.23;;;;;;;8.55;75.57;99968.53;6162136;28;20238;-68
2021/01/20 00:57:20;;;;;;;11.60;10.47;;;;;;;8.58;74.71;99972.81;6161218;28;20518;-69
2021/01/20 01:00:40;;;;;;;13.20;10.53;;;;;;;8.61;74.17;99988.34;6146365;28;20616;-68
2021/01/20 01:04:02;;;;;;;11.20;10.20;;;;;;;8.30;75.43;99973.16;6153185;28;20238;-68
2021/01/20 01:07:23;;;;;;;12.37;11.13;;;;;;;8.69;74.97;99980.47;6155729;28;20348;-69
2021/01/20 01:10:43;;;;;;;10.53;9.53;;;;;;;8.35;76.41;99962.72;6160588;28;20230;-67
2021/01/20 01:14:17;;;;;;;12.50;11.30;;;;;;;8.52;75.67;99968.56;6133727;28;20245;-69
2021/01/20 01:18:01;;;;;;;13.47;12.17;;;;;;;8.04;76.93;99965.72;6141108;28;22282;-67
2021/01/20 01:21:23;;;;;;;15.00;13.40;;;;;;;7.81;77.06;99982.41;6158647;28;20245;-66
2021/01/20 01:24:43;;;;;;;13.77;12.37;;;;;;;7.84;76.58;99994.47;6154598;28;20227;-67
2021/01/20 01:28:12;;;;;;;16.57;14.97;;;;;;;8.20;75.83;99962.06;6157319;28;20234;-67
2021/01/20 01:31:41;;;;;;;14.83;13.30;;;;;;;8.09;75.29;99969.97;6141654;28;20601;-66
2021/01/20 01:35:01;;;;;;;15.83;14.33;;;;;;;8.24;74.77;99958.53;6156594;28;20227;-68
2021/01/20 01:38:24;;;;;;;15.43;13.87;;;;;;;8.22;74.77;99952.53;6139945;28;20234;-68
2021/01/20 01:41:51;;;;;;;15.80;14.20;;;;;;;8.20;74.65;99951.69;6147826;28;20717;-68
2021/01/20 01:45:13;;;;;;;16.07;14.57;;;;;;;8.42;73.67;99946.22;6151024;28;20234;-68
2021/01/20 01:48:33;;;;;;;17.80;15.43;;;;;;;8.11;74.76;99935.38;6147868;28;20234;-69
2021/01/20 01:51:54;;;;;;;16.43;14.90;;;;;;;8.34;73.50;99938.53;6155190;28;20239;-68
2021/01/20 01:55:38;;;;;;;17.93;16.33;;;;;;;8.18;73.88;99931.81;6127969;28;20230;-69
2021/01/20 01:59:22;;;;;;;16.30;14.70;;;;;;;7.78;75.11;99953.06;6158036;28;20234;-69
2021/01/20 02:02:43;;;;;;;16.93;15.33;;;;;;;8.25;73.81;99938.66;6134129;28;20272;-69
2021/01/20 02:06:12;;;;;;;18.00;16.33;;;;;;;7.66;74.91;99957.50;6155239;28;20253;-67
2021/01/20 02:09:34;;;;;;;17.80;16.10;;;;;;;7.86;74.30;99938.28;6142986;28;20840;-68
2021/01/20 02:13:19;;;;;;;17.83;16.03;;;;;;;7.84;74.27;99938.28;6145690;28;20231;-68
2021/01/20 02:17:18;;;;;;;16.97;15.20;;;;;;;7.52;75.06;99954.19;6152244;28;20257;-67
2021/01/20 02:21:10;;;;;;;18.57;16.63;;;;;;;7.55;75.44;99945.53;6153239;28;21091;-68
2021/01/20 02:24:56;;;;;;;20.10;18.23;;;;;;;7.87;74.78;99927.91;6154365;28;20226;-68
2021/01/20 02:28:50;;;;;;;20.80;18.80;;;;;;;7.49;75.43;99941.28;6155022;28;20235;-68
2021/01/20 02:32:20;;;;;;;22.00;19.93;;;;;;;7.44;76.17;99932.69;6151625;28;20686;-67
2021/01/20 02:35:42;;;;;;;21.27;18.87;;;;;;;7.37;76.12;99946.59;6156094;28;20265;-67
2021/01/20 02:39:05;;;;;;;22.33;19.90;;;;;;;7.45;75.87;99937.00;6152945;28;20255;-66
2021/01/20 02:42:27;;;;;;;21.43;19.30;;;;;;;7.57;75.63;99939.47;6155245;28;20222;-67
2021/01/20 02:45:56;;;;;;;21.30;19.30;;;;;;;7.29;75.47;99952.69;6157313;28;20269;-66
2021/01/20 02:49:17;;;;;;;19.20;17.23;;;;;;;7.06;76.27;99952.06;6148195;28;20292;-68
2021/01/20 02:52:47;;;;;;;23.30;21.00;;;;;;;7.32;76.53;99948.34;6161973;28;20227;-67
2021/01/20 02:56:38;;;;;;;24.03;21.50;;;;;;;7.36;75.54;99937.09;6161563;28;20234;-67
2021/01/20 03:00:05;;;;;;;22.93;20.60;;;;;;;7.14;76.08;99945.06;6145557;28;20638;-67
2021/01/20 03:03:33;;;;;;;20.30;18.23;;;;;;;7.04;76.05;99948.63;6158085;28;20262;-67
2021/01/20 03:06:59;;;;;;;24.37;20.60;;;;;;;7.30;75.02;99944.03;6156654;28;20243;-67
2021/01/20 03:10:19;;;;;;;22.87;20.47;;;;;;;7.44;75.54;99924.91;6158925;28;20234;-68
2021/01/20 03:13:41;;;;;;;22.50;19.30;;;;;;;7.04;75.26;99939.13;6162751;28;20226;-67
2021/01/20 03:17:02;;;;;;;20.87;18.50;;;;;;;7.07;75.10;99908.00;6155016;28;20226;-68
2021/01/20 03:20:22;;;;;;;21.90;18.10;;;;;;;7.17;74.40;99928.63;6161872;28;20234;-67
2021/01/20 03:23:43;;;;;;;22.83;19.23;;;;;;;7.27;74.64;99917.34;6160483;28;20234;-68
2021/01/20 03:27:10;;;;;;;18.60;15.90;;;;;;;7.36;73.55;99913.78;6157146;28;20242;-67
2021/01/20 03:30:31;;;;;;;20.37;17.23;;;;;;;7.12;75.03;99909.72;6154126;28;20506;-68
2021/01/20 03:33:52;;;;;;;23.17;18.53;;;;;;;6.99;76.17;99921.91;6161529;28;20381;-67
2021/01/20 03:37:12;;;;;;;20.60;17.50;;;;;;;6.86;76.97;99910.78;6151806;28;20250;-66
2021/01/20 03:40:33;;;;;;;20.57;18.43;;;;;;;6.78;77.07;99904.81;6160161;28;20235;-66
2021/01/20 03:43:54;;;;;;;16.17;14.17;;;;;;;6.56;77.07;99919.66;6156430;28;20608;-67
2021/01/20 03:47:14;;;;;;;16.60;14.53;;;;;;;6.68;76.70;99901.44;6157628;28;20328;-69
2021/01/20 03:50:35;;;;;;;20.47;17.20;;;;;;;6.97;77.18;99890.84;6157906;28;20218;-67
2021/01/20 03:53:55;;;;;;;14.43;11.90;;;;;;;6.56;76.51;99909.31;6161233;28;20234;-67
2021/01/20 03:57:17;;;;;;;18.70;15.07;;;;;;;6.95;76.25;99889.16;6157883;28;20840;-67
2021/01/20 04:00:37;;;;;;;18.40;15.73;;;;;;;6.73;75.78;99891.94;6151471;28;20231;-67
2021/01/20 04:03:58;;;;;;;18.10;16.10;;;;;;;6.98;75.89;99881.34;6158460;28;21950;-68
2021/01/20 04:07:24;;;;;;;19.47;16.37;;;;;;;6.89;75.41;99877.13;6142002;28;20583;-68
2021/01/20 04:10:45;;;;;;;16.83;15.07;;;;;;;6.99;75.12;99878.75;6159907;28;20258;-68
2021/01/20 04:14:06;;;;;;;17.23;15.37;;;;;;;7.03;74.94;99861.44;6161061;28;20238;-68
2021/01/20 04:17:26;;;;;;;20.67;16.50;;;;;;;6.91;75.32;99865.03;6155684;28;20507;-67
2021/01/20 04:20:47;;;;;;;19.97;13.90;;;;;;;6.94;74.68;99866.72;6154785;28;20239;-68
2021/01/20 04:24:10;;;;;;;14.33;12.73;;;;;;;6.71;75.97;99870.38;6155751;28;20711;-68
2021/01/20 04:27:30;;;;;;;18.67;16.50;;;;;;;6.88;75.60;99860.75;6160907;28;20227;-69
2021/01/20 04:30:52;;;;;;;16.67;14.77;;;;;;;6.81;75.98;99861.66;6158988;28;20242;-68
2021/01/20 04:34:12;;;;;;;18.53;16.73;;;;;;;6.95;75.87;99863.25;6161012;28;20230;-68
2021/01/20 04:37:33;;;;;;;19.70;17.03;;;;;;;6.96;75.04;99859.78;6152212;28;20518;-69
2021/01/20 04:40:54;;;;;;;18.50;15.93;;;;;;;7.14;74.38;99851.00;6156422;28;20239;-67
2021/01/20 04:44:14;;;;;;;15.80;14.30;;;;;;;6.94;73.98;99862.41;6151429;28;20242;-68
2021/01/20 04:47:37;;;;;;;16.97;15.43;;;;;;;7.09;73.47;99849.31;6157665;28;20235;-68
2021/01/20 04:50:58;;;;;;;15.63;13.17;;;;;;;6.93;73.78;99865.00;6160484;28;20230;-68
2021/01/20 04:54:19;;;;;;;15.63;14.03;;;;;;;7.13;73.45;99844.94;6160885;28;20222;-68
2021/01/20 04:57:39;;;;;;;16.70;14.73;;;;;;;7.07;72.90;99855.38;6162621;28;20219;-68
2021/01/20 05:01:01;;;;;;;14.63;12.87;;;;;;;6.97;73.06;99833.91;6164667;28;20628;-68
2021/01/20 05:04:22;;;;;;;14.97;13.50;;;;;;;6.99;72.90;99836.47;6156101;28;20243;-68
2021/01/20 05:07:43;;;;;;;11.80;10.70;;;;;;;6.85;73.10;99826.25;6149673;28;20644;-68
2021/01/20 05:11:03;;;;;;;14.27;12.90;;;;;;;7.02;72.10;99837.31;6159075;28;20238;-69
2021/01/20 05:14:24;;;;;;;14.40;11.63;;;;;;;7.15;71.96;99822.47;6155734;28;20235;-68
2021/01/20 05:17:57;;;;;;;12.97;11.20;;;;;;;7.09;71.97;99814.78;6166565;28;20229;-68
2021/01/20 05:21:19;;;;;;;11.57;10.37;;;;;;;7.06;71.67;99817.44;6149359;28;20488;-69
2021/01/20 05:24:40;;;;;;;12.77;11.50;;;;;;;7.10;71.71;99803.56;6158947;28;20601;-68
2021/01/20 05:28:16;;;;;;;14.00;10.47;;;;;;;7.02;71.79;99807.97;6160533;28;20239;-68
2021/01/20 05:31:36;;;;;;;11.80;10.70;;;;;;;6.98;71.90;99825.28;6166098;28;20604;-68
2021/01/20 05:34:58;;;;;;;17.77;10.57;;;;;;;7.00;71.59;99807.09;6160201;28;20226;-68
2021/01/20 05:38:32;;;;;;;11.13;9.90;;;;;;;6.92;71.65;99824.47;6163900;28;20258;-70
2021/01/20 05:41:59;;;;;;;10.67;9.43;;;;;;;7.11;71.14;99800.09;6160195;28;20313;-69
2021/01/20 05:45:22;;;;;;;13.73;9.83;;;;;;;7.14;71.08;99797.47;6151536;28;20230;-68
2021/01/20 05:48:46;;;;;;;12.67;10.37;;;;;;;7.39;69.98;99804.97;6155047;28;20242;-68
2021/01/20 05:52:13;;;;;;;14.60;9.77;;;;;;;7.10;71.37;99819.09;6156360;28;20675;-68
2021/01/20 05:55:36;;;;;;;10.77;9.47;;;;;;;7.24;70.98;99803.41;6156612;28;20238;-69
2021/01/20 05:58:57;;;;;;;12.10;10.03;;;;;;;7.20;71.29;99812.09;6158029;28;20223;-69
2021/01/20 06:02:19;;;;;;;9.63;8.00;;;;;;;6.78;72.33;99812.50;6155382;28;20226;-69
2021/01/20 06:05:40;;;;;;;11.37;8.93;;;;;;;6.93;71.94;99803.75;6152446;28;20238;-68
2021/01/20 06:09:01;;;;;;;11.27;9.23;;;;;;;6.86;71.99;99815.91;6138511;28;20230;-69
2021/01/20 06:12:23;;;;;;;14.20;10.03;;;;;;;7.16;71.35;99800.06;6155752;28;20903;-69
2021/01/20 06:15:43;;;;;;;9.23;7.67;;;;;;;6.93;71.98;99802.88;6162081;28;20898;-69
2021/01/20 06:19:09;;;;;;;15.33;9.27;;;;;;;7.12;72.07;99788.88;6155591;28;20231;-69
2021/01/20 06:22:31;;;;;;;11.93;9.53;;;;;;;6.97;72.62;99794.22;6152645;28;20262;-69
2021/01/20 06:26:13;;;;;;;10.17;9.17;;;;;;;7.00;72.12;99796.75;6158587;28;20234;-69
2021/01/20 06:29:39;;;;;;;8.00;7.17;;;;;;;6.98;71.99;99794.22;6158934;28;20226;-69
2021/01/20 06:33:05;;;;;;;9.67;8.37;;;;;;;7.18;71.54;99791.38;6158040;28;20234;-69
2021/01/20 06:36:33;;;;;;;15.67;9.40;;;;;;;7.48;70.80;99794.47;6159010;28;21682;-69
2021/01/20 06:39:53;;;;;;;11.77;8.90;;;;;;;6.87;72.59;99796.91;6162432;28;20229;-69
2021/01/20 06:43:35;;;;;;;9.43;8.40;;;;;;;6.77;72.57;99815.97;6156226;28;20226;-70
2021/01/20 06:47:01;;;;;;;9.43;8.53;;;;;;;6.91;72.56;99792.53;6155904;28;20720;-69
2021/01/20 06:50:21;;;;;;;10.73;8.23;;;;;;;6.95;72.23;99796.81;6156093;28;20234;-70
2021/01/20 06:54:08;;;;;;;9.80;8.50;;;;;;;7.00;72.35;99789.88;6154915;28;20239;-68
2021/01/20 06:57:30;;;;;;;9.33;7.43;;;;;;;7.03;72.32;99795.00;6142761;28;20620;-69
2021/01/20 07:01:13;;;;;;;11.47;9.77;;;;;;;7.00;72.53;99789.00;6161333;28;20238;-69
2021/01/20 07:05:06;;;;;;;8.77;7.83;;;;;;;6.93;72.57;99782.19;6157263;28;20521;-68
2021/01/20 07:08:51;;;;;;;10.47;7.67;;;;;;;6.94;72.32;99786.47;6158242;28;20247;-69
2021/01/20 07:12:12;;;;;;;10.97;9.03;;;;;;;6.93;72.69;99785.63;6147547;28;20539;-68
2021/01/20 07:15:32;;;;;;;10.37;8.83;;;;;;;7.08;72.46;99779.44;6157164;28;20234;-69
2021/01/20 07:18:53;;;;;;;13.13;9.20;;;;;;;6.94;73.11;99786.47;6155652;28;20655;-69
2021/01/20 07:22:15;;;;;;;12.07;9.03;;;;;;;6.87;73.38;99775.34;6145541;28;20235;-69
2021/01/20 07:25:36;;;;;;;10.93;8.10;;;;;;;7.49;71.72;99758.19;6155369;28;20234;-69
2021/01/20 07:28:57;;;;;;;10.10;8.17;;;;;;;6.77;73.66;99764.22;6145095;28;20559;-68
2021/01/20 07:32:29;;;;;;;13.77;9.30;;;;;;;7.33;71.90;99758.41;6154593;28;20233;-68
2021/01/20 07:35:50;;;;;;;11.57;7.77;;;;;;;7.14;72.37;99743.09;6154132;28;20601;-71
2021/01/20 07:39:21;;;;;;;9.27;8.37;;;;;;;7.29;71.94;99747.25;6153052;28;20235;-69
2021/01/20 07:42:42;;;;;;;11.93;7.50;;;;;;;7.15;72.16;99747.38;6153864;28;20306;-69
2021/01/20 07:46:13;;;;;;;11.13;7.80;;;;;;;7.34;71.73;99755.78;6141458;28;20651;-68
2021/01/20 07:49:34;;;;;;;7.77;6.97;;;;;;;7.18;71.61;99765.50;6151776;28;20613;-70
2021/01/20 07:52:55;;;;;;;8.33;7.53;;;;;;;7.20;71.70;99757.72;6157223;28;20234;-69
2021/01/20 07:56:21;;;;;;;9.87;6.87;;;;;;;7.48;70.72;99738.34;6154959;28;20226;-72
2021/01/20 07:59:43;;;;;;;9.83;7.33;;;;;;;7.59;70.54;99739.94;6140873;28;20231;-69
2021/01/20 08:03:04;;;;;;;7.27;6.57;;;;;;;7.13;71.45;99746.56;6147794;28;20309;-68
2021/01/20 08:06:26;;;;;;;7.10;6.40;;;;;;;7.30;71.04;99744.63;6153590;28;20242;-68
2021/01/20 08:09:46;;;;;;;9.33;7.03;;;;;;;7.47;70.70;99743.56;6143374;28;20227;-69
2021/01/20 08:13:12;;;;;;;7.47;6.77;;;;;;;7.51;70.26;99763.34;6156778;28;20230;-69
2021/01/20 08:16:33;;;;;;;6.37;5.30;;;;;;;7.35;70.70;99767.88;6154562;28;20707;-68
2021/01/20 08:19:55;;;;;;;10.77;7.20;;;;;;;7.60;70.03;99755.47;6155213;28;20238;-70
2021/01/20 08:23:43;;;;;;;10.07;6.23;;;;;;;7.64;69.70;99749.34;6153978;28;20297;-68
2021/01/20 08:27:03;;;;;;;12.17;6.00;;;;;;;7.85;69.10;99763.75;6148510;28;20223;-68
2021/01/20 08:30:32;;;;;;;7.63;6.07;;;;;;;7.89;68.80;99747.25;6140459;28;20286;-69
2021/01/20 08:34:14;;;;;;;7.17;5.60;;;;;;;7.86;68.72;99757.66;6148689;28;20234;-68
2021/01/20 08:37:35;;;;;;;7.87;5.40;;;;;;;7.94;68.02;99762.75;6150072;28;20270;-70
2021/01/20 08:41:12;;;;;;;5.60;5.00;;;;;;;8.10;67.45;99755.56;6154872;28;20235;-69
2021/01/20 08:44:32;;;;;;;6.13;5.53;;;;;;;8.38;66.98;99742.16;6151392;28;20570;-69
2021/01/20 08:47:55;;;;;;;6.00;4.97;;;;;;;8.13;67.36;99741.72;6147581;28;20245;-68
2021/01/20 08:51:19;;;;;;;5.73;5.13;;;;;;;8.40;66.52;99740.41;6154078;28;20253;-70
2021/01/20 08:54:47;;;;;;;5.87;4.77;;;;;;;8.37;65.97;99758.59;6135561;28;20227;-68
2021/01/20 08:58:25;;;;;;;6.63;4.30;;;;;;;8.46;65.86;99746.38;6146987;28;20530;-69
2021/01/20 09:01:45;;;;;;;6.17;4.27;;;;;;;8.68;64.96;99740.78;6149251;28;20238;-69
2021/01/20 09:05:08;;;;;;;5.17;4.67;;;;;;;8.55;65.03;99731.50;6153207;28;20230;-70
2021/01/20 09:08:30;;;;;;;5.17;3.90;;;;;;;8.72;64.30;99739.00;6156410;28;20228;-69
2021/01/20 09:11:51;;;;;;;5.43;4.60;;;;;;;8.51;64.74;99754.09;6149116;28;20258;-69
2021/01/20 09:15:12;;;;;;;6.00;4.23;;;;;;;8.59;64.28;99751.34;6155563;28;20227;-69
2021/01/20 09:18:33;;;;;;;5.17;4.23;;;;;;;8.65;63.81;99736.50;6151715;28;20227;-69
2021/01/20 09:21:54;;;;;;;4.43;3.73;;;;;;;8.45;64.19;99749.84;6148360;28;20241;-70
2021/01/20 09:25:16;;;;;;;5.13;4.40;;;;;;;8.51;63.63;99728.13;6152020;28;20239;-69
2021/01/20 09:28:36;;;;;;;5.30;4.63;;;;;;;8.45;64.25;99739.47;6162264;28;20325;-68
2021/01/20 09:31:57;;;;;;;4.87;4.37;;;;;;;8.53;63.84;99725.50;6165603;28;20305;-69
2021/01/20 09:35:18;;;;;;;5.20;4.13;;;;;;;8.54;63.68;99719.44;6161346;28;20646;-69
2021/01/20 09:38:40;;;;;;;7.27;3.80;;;;;;;8.70;63.07;99720.84;6156088;28;20282;-69
2021/01/20 09:42:00;;;;;;;5.70;4.63;;;;;;;8.85;62.51;99720.56;6164488;28;20267;-69
2021/01/20 09:45:26;;;;;;;5.57;4.20;;;;;;;8.86;62.13;99726.63;6167017;28;20235;-69
2021/01/20 09:48:46;;;;;;;6.10;4.23;;;;;;;9.32;61.13;99715.25;6160803;28;20235;-70
2021/01/20 09:52:07;;;;;;;4.73;3.87;;;;;;;9.09;61.96;99720.09;6161080;28;20230;-70
2021/01/20 09:55:28;;;;;;;6.60;4.83;;;;;;;9.42;60.83;99715.94;6166892;28;20518;-69
2021/01/20 09:58:49;;;;;;;5.07;4.07;;;;;;;9.28;60.47;99729.22;6147224;28;20226;-69
2021/01/20 10:02:09;;;;;;;4.67;3.00;;;;;;;9.07;60.87;99704.53;6167863;28;20860;-69
2021/01/20 10:05:30;;;;;;;5.23;3.70;;;;;;;9.35;60.07;99712.63;6165893;28;20231;-69
2021/01/20 10:08:50;;;;;;;4.73;3.47;;;;;;;9.07;60.89;99717.53;6167677;28;20233;-70
2021/01/20 10:12:14;;;;;;;5.23;4.37;;;;;;;9.33;59.97;99709.19;6162927;28;20238;-69
2021/01/20 10:15:38;;;;;;;4.23;3.83;;;;;;;9.48;59.14;99702.81;6160102;28;20230;-70
2021/01/20 10:18:58;;;;;;;4.63;3.43;;;;;;;9.31;59.59;99707.53;6156818;28;20620;-70
2021/01/20 10:22:19;;;;;;;4.80;3.20;;;;;;;9.70;58.79;99691.94;6146603;28;20684;-69
2021/01/20 10:25:40;;;;;;;6.13;4.13;;;;;;;9.10;59.59;99708.84;6166930;28;20238;-70
2021/01/20 10:29:01;;;;;;;4.13;3.50;;;;;;;9.11;59.33;99707.94;6157790;28;20574;-69
2021/01/20 10:32:21;;;;;;;5.40;3.67;;;;;;;9.46;59.04;99691.59;6167153;28;20238;-69
2021/01/20 10:35:42;;;;;;;3.40;3.10;;;;;;;9.63;58.50;99686.88;6163042;28;20227;-69
2021/01/20 10:39:04;;;;;;;6.33;3.40;;;;;;;9.32;59.17;99684.09;6162235;28;20226;-69
2021/01/20 10:42:24;;;;;;;7.20;4.73;;;;;;;9.29;59.74;99688.53;6168231;28;20328;-69
2021/01/20 10:45:45;;;;;;;4.97;3.53;;;;;;;9.46;59.43;99679.47;6159758;28;20234;-67
2021/01/20 10:49:06;;;;;;;6.77;4.13;;;;;;;9.38;59.36;99691.78;6149395;28;20710;-67
2021/01/20 10:52:26;;;;;;;3.83;3.43;;;;;;;9.20;59.80;99690.41;6162661;28;20269;-67
2021/01/20 10:55:47;;;;;;;3.30;3.00;;;;;;;9.44;59.53;99680.38;6167291;28;20234;-67
2021/01/20 10:59:08;;;;;;;3.77;2.93;;;;;;;9.45;59.49;99679.50;6163851;28;20226;-67
2021/01/20 11:02:29;;;;;;;4.47;3.17;;;;;;;9.29;59.67;99681.56;6166588;28;20227;-67
2021/01/20 11:05:50;;;;;;;4.17;2.67;;;;;;;9.41;58.75;99683.03;6160870;28;20226;-66
2021/01/20 11:09:10;;;;;;;11.17;3.53;;;;;;;9.40;58.81;99696.91;6166610;28;20752;-67
2021/01/20 11:12:31;;;;;;;6.17;4.03;;;;;;;9.35;58.99;99684.03;6169928;28;20313;-69
2021/01/20 11:15:52;;;;;;;2.93;2.43;;;;;;;9.52;58.74;99688.88;6170519;28;20231;-69
2021/01/20 11:19:13;;;;;;;5.23;2.80;;;;;;;9.59;58.31;99686.97;6164906;28;20230;-69
2021/01/20 11:22:33;;;;;;;2.40;2.20;;;;;;;9.33;59.37;99682.38;6168379;28;20239;-68
2021/01/20 11:25:55;;;;;;;4.20;3.37;;;;;;;9.56;58.76;99689.66;6166615;28;20250;-69
2021/01/20 11:29:15;;;;;;;4.03;2.27;;;;;;;9.46;58.74;99683.81;6169094;28;20262;-69
2021/01/20 11:32:36;;;;;;;4.00;3.57;;;;;;;9.95;58.03;99659.22;6167639;28;20234;-69
2021/01/20 11:35:57;;;;;;;4.47;3.10;;;;;;;9.83;58.04;99668.19;6165744;28;20246;-69
2021/01/20 11:39:17;;;;;;;4.57;2.53;;;;;;;9.71;58.69;99667.63;6168366;28;20231;-69
2021/01/20 11:42:38;;;;;;;4.30;2.97;;;;;;;9.74;58.01;99655.41;6167444;28;20234;-69
2021/01/20 11:45:58;;;;;;;3.93;2.30;;;;;;;9.66;58.22;99667.75;6168205;28;20226;-68
2021/01/20 11:49:19;;;;;;;4.23;2.40;;;;;;;9.65;59.25;99658.22;6170304;28;20334;-68
2021/01/20 11:52:40;;;;;;;2.87;2.33;;;;;;;9.93;58.48;99653.22;6166038;28;20238;-68
2021/01/20 11:56:00;;;;;;;3.83;2.90;;;;;;;10.23;58.10;99653.31;6173585;28;20623;-70
2021/01/20 11:59:21;;;;;;;2.80;2.60;;;;;;;10.23;57.36;99641.16;6157209;28;20325;-69
2021/01/20 12:02:42;;;;;;;3.83;2.90;;;;;;;9.85;58.91;99652.56;6159501;28;20596;-68
2021/01/20 12:06:03;;;;;;;4.40;2.83;;;;;;;10.12;58.97;99627.59;6162905;28;20231;-69
2021/01/20 12:09:24;;;;;;;5.23;3.33;;;;;;;9.95;59.17;99615.03;6164569;28;20562;-70
2021/01/20 12:12:45;;;;;;;2.47;2.27;;;;;;;10.31;58.13;99625.38;6158583;28;20230;-68
2021/01/20 12:16:05;;;;;;;2.57;2.37;;;;;;;10.24;59.03;99626.41;6151783;28;20227;-68
2021/01/20 12:19:25;;;;;;;2.43;2.00;;;;;;;9.86;60.64;99642.09;6170648;28;20250;-69
2021/01/20 12:22:46;;;;;;;3.83;2.97;;;;;;;10.26;59.40;99624.63;6171883;28;20652;-68
2021/01/20 12:26:07;;;;;;;3.93;3.00;;;;;;;10.18;59.76;99618.78;6166870;28;20875;-69
2021/01/20 12:29:28;;;;;;;5.77;3.33;;;;;;;10.28;59.36;99617.63;6167400;28;20238;-69
2021/01/20 12:32:49;;;;;;;2.23;2.03;;;;;;;10.00;60.43;99612.28;6166707;28;20227;-69
2021/01/20 12:36:10;;;;;;;2.93;2.47;;;;;;;10.26;59.98;99624.63;6162223;28;20250;-68
2021/01/20 12:39:30;;;;;;;3.10;2.80;;;;;;;10.25;59.89;99615.97;6162874;28;20234;-69
2021/01/20 12:42:52;;;;;;;3.60;2.83;;;;;;;10.33;59.68;99607.13;6165167;28;20234;-68
2021/01/20 12:46:12;;;;;;;6.23;3.43;;;;;;;10.27;60.15;99615.91;6164605;28;20234;-68
2021/01/20 12:49:35;;;;;;;6.33;2.50;;;;;;;10.58;58.93;99602.09;6164058;28;20246;-69
2021/01/20 12:52:56;;;;;;;3.93;2.43;;;;;;;10.35;59.84;99605.31;6164219;28;20258;-68
2021/01/20 12:56:16;;;;;;;3.60;2.77;;;;;;;10.29;59.99;99613.28;6154398;28;20234;-69
2021/01/20 12:59:38;;;;;;;2.33;2.13;;;;;;;10.55;59.28;99597.00;6158904;28;20495;-67
2021/01/20 13:02:58;;;;;;;4.23;2.50;;;;;;;10.36;59.58;99579.28;6157245;28;20226;-67
2021/01/20 13:06:18;;;;;;;4.40;2.73;;;;;;;10.42;59.45;99576.50;6163702;28;20222;-67
2021/01/20 13:09:39;;;;;;;3.40;2.30;;;;;;;10.64;59.33;99578.47;6164970;28;20226;-68
2021/01/20 13:12:59;;;;;;;2.97;2.33;;;;;;;10.32;59.84;99585.47;6160864;28;20273;-68
2021/01/20 13:16:21;;;;;;;4.17;2.83;;;;;;;10.86;59.18;99583.03;6167896;28;20234;-68
2021/01/20 13:19:41;;;;;;;2.20;2.00;;;;;;;10.54;59.76;99584.84;6167579;28;20266;-67
2021/01/20 13:23:02;;;;;;;3.03;2.07;;;;;;;10.60;59.63;99580.34;6169318;28;20317;-67
2021/01/20 13:26:22;;;;;;;3.30;1.90;;;;;;;10.67;59.27;99578.41;6160688;28;20305;-68
2021/01/20 13:29:43;;;;;;;2.67;1.90;;;;;;;10.72;59.10;99580.84;6161762;28;20246;-68
2021/01/20 13:33:04;;;;;;;3.97;1.90;;;;;;;10.54;59.76;99582.25;6168316;28;20243;-67
2021/01/20 13:36:25;;;;;;;2.93;1.93;;;;;;;10.47;59.77;99565.97;6160408;28;20332;-67
2021/01/20 13:39:45;;;;;;;3.43;2.27;;;;;;;10.70;58.87;99580.94;6145835;29;20538;-68
2021/01/20 13:43:06;;;;;;;3.53;2.00;;;;;;;11.49;56.72;99568.06;6162315;28;20262;-67
2021/01/20 13:46:26;;;;;;;1.93;1.70;;;;;;;12.09;54.05;99564.31;6171224;28;20508;-68
2021/01/20 13:49:48;;;;;;;2.43;2.07;;;;;;;12.24;53.56;99556.88;6157885;28;20238;-68
2021/01/20 13:53:08;;;;;;;4.00;2.60;;;;;;;12.32;53.71;99563.50;6156029;28;20608;-68
2021/01/20 13:56:28;;;;;;;2.00;1.83;;;;;;;12.02;54.41;99557.63;6179631;28;20293;-68
2021/01/20 13:59:49;;;;;;;2.53;2.00;;;;;;;11.54;55.02;99579.22;6163353;28;21203;-68
2021/01/20 14:03:09;;;;;;;2.87;2.13;;;;;;;11.79;53.75;99566.22;6165392;28;20229;-68
2021/01/20 14:06:31;;;;;;;2.17;1.70;;;;;;;11.81;53.76;99560.03;6186588;28;20382;-69
2021/01/20 14:09:51;;;;;;;2.43;2.20;;;;;;;11.61;53.91;99565.94;6144098;28;20405;-68
2021/01/20 14:13:12;;;;;;;2.93;1.67;;;;;;;12.19;52.40;99555.28;6167561;28;20226;-68
2021/01/20 14:16:32;;;;;;;2.30;2.10;;;;;;;11.60;53.08;99561.59;6164500;28;20238;-67
2021/01/20 14:19:53;;;;;;;2.07;1.87;;;;;;;11.31;53.66;99561.72;6146057;28;20223;-68
2021/01/20 14:23:14;;;;;;;3.73;2.07;;;;;;;11.36;53.90;99573.69;6164181;28;20234;-68
2021/01/20 14:26:35;;;;;;;2.23;1.83;;;;;;;11.32;53.70;99561.66;6165944;28;20230;-68
2021/01/20 14:29:55;;;;;;;2.90;1.50;;;;;;;11.54;52.96;99567.03;6165215;28;20632;-69
2021/01/20 14:33:15;;;;;;;2.20;1.97;;;;;;;11.40;52.92;99564.03;6156082;28;22216;-68
2021/01/20 14:36:36;;;;;;;3.37;2.40;;;;;;;11.51;51.64;99567.09;6167239;28;20234;-67
2021/01/20 14:39:58;;;;;;;2.37;1.57;;;;;;;11.57;50.93;99556.50;6162492;28;20255;-68
2021/01/20 14:43:18;;;;;;;2.17;1.60;;;;;;;11.59;50.89;99559.91;6163607;28;20591;-68
2021/01/20 14:46:39;;;;;;;4.13;2.20;;;;;;;11.26;51.27;99566.19;6172372;28;20226;-73
2021/01/20 14:50:00;;;;;;;3.60;2.53;;;;;;;11.67;50.87;99551.84;6149862;28;20238;-67
2021/01/20 14:53:20;;;;;;;3.83;2.20;;;;;;;11.70;50.52;99550.88;6163128;28;20609;-66
2021/01/20 14:56:41;;;;;;;3.73;1.90;;;;;;;11.75;50.30;99555.03;6163310;28;20225;-66
2021/01/20 15:00:05;;;;;;;3.10;1.93;;;;;;;11.87;50.00;99543.31;6163034;28;20513;-66
2021/01/20 15:03:25;;;;;;;5.23;2.70;;;;;;;11.56;51.06;99557.38;6163727;28;20251;-66
2021/01/20 15:06:46;;;;;;;3.40;1.77;;;;;;;11.41;51.18;99532.66;6162571;28;20236;-64
2021/01/20 15:10:09;;;;;;;5.53;2.10;;;;;;;11.66;50.71;99538.84;6148644;28;20326;-70
2021/01/20 15:13:30;;;;;;;4.43;2.20;;;;;;;11.51;50.71;99551.47;6160442;28;20230;-66
2021/01/20 15:16:51;;;;;;;4.20;2.63;;;;;;;11.37;50.79;99545.88;6169928;28;20239;-65
2021/01/20 15:20:13;;;;;;;3.97;1.67;;;;;;;11.20;50.75;99541.19;6169835;28;20227;-68
2021/01/20 15:23:33;;;;;;;2.27;1.83;;;;;;;11.32;50.21;99539.94;6158227;28;20243;-67
2021/01/20 15:26:54;;;;;;;2.43;2.23;;;;;;;11.20;50.57;99535.97;6141110;28;20233;-68
2021/01/20 15:30:16;;;;;;;2.50;2.07;;;;;;;11.40;50.90;99551.00;6157023;28;20597;-66
2021/01/20 15:33:36;;;;;;;3.90;1.83;;;;;;;11.02;50.92;99547.84;6166074;28;20620;-68
2021/01/20 15:36:57;;;;;;;3.33;2.00;;;;;;;11.00;50.65;99549.63;6160980;28;20590;-65
2021/01/20 15:40:18;;;;;;;6.40;2.70;;;;;;;11.18;49.78;99548.19;6162440;28;20257;-66
2021/01/20 15:43:39;;;;;;;3.33;2.20;;;;;;;11.51;49.49;99548.84;6158038;28;20644;-67
2021/01/20 15:47:00;;;;;;;4.97;2.00;;;;;;;11.13;49.42;99529.28;6163795;28;20242;-71
2021/01/20 15:50:20;;;;;;;3.30;2.63;;;;;;;11.09;48.98;99533.72;6171186;28;20280;-68
2021/01/20 15:53:41;;;;;;;3.57;2.30;;;;;;;11.14;48.61;99518.78;6164149;28;20456;-70
2021/01/20 15:57:01;;;;;;;2.03;1.93;;;;;;;11.31;48.37;99531.28;6163808;28;20283;-70